Time;durP1;ratioP1;P1;durP2;ratioP2;P2;SDS_P1;SDS_P2;PMS_P1;PMS_P2;Temp;Humidity;BMP_temperature;BMP_pressure;BME280_temperature;BME280_humidity;BME280_pressure;Samples;Min_cycle;Max_cycle;Signal;HPM_P1;HPM_P2
2023/08/19 00:00:59;;;;;;;6.53;3.83;;;;;;;;;;5032874;28;20238;-86
2023/08/19 00:03:26;;;;;;;3.60;3.30;;;;;;;;;;5035739;28;20214;-86
2023/08/19 00:05:53;;;;;;;4.70;4.30;;;;;;;;;;5034685;28;20223;-86
2023/08/19 00:08:22;;;;;;;5.18;3.33;;;;;;;;;;5036031;28;20223;-85
2023/08/19 00:10:49;;;;;;;4.95;3.78;;;;;;;;;;5049015;28;20226;-86
2023/08/19 00:13:16;;;;;;;5.38;4.22;;;;;;;;;;5047843;28;20258;-86
2023/08/19 00:15:43;;;;;;;3.80;3.50;;;;;;;;;;5046740;28;20214;-85
2023/08/19 00:18:10;;;;;;;4.05;3.65;;;;;;;;;;5047783;28;20203;-86
2023/08/19 00:20:37;;;;;;;5.25;3.80;;;;;;;;;;5040477;28;20231;-86
2023/08/19 00:23:04;;;;;;;5.55;3.95;;;;;;;;;;5030179;28;20518;-86
2023/08/19 00:25:34;;;;;;;4.20;3.33;;;;;;;;;;5024909;28;20306;-85
2023/08/19 00:28:03;;;;;;;4.75;3.30;;;;;;;;;;5033765;28;20257;-86
2023/08/19 00:30:31;;;;;;;4.00;3.58;;;;;;;;;;5032315;28;20242;-86
2023/08/19 00:32:58;;;;;;;3.65;3.35;;;;;;;;;;5033363;28;20206;-86
2023/08/19 00:35:25;;;;;;;6.32;4.00;;;;;;;;;;5029022;28;20239;-86
2023/08/19 00:37:52;;;;;;;4.25;3.70;;;;;;;;;;5020216;28;20210;-86
2023/08/19 00:40:19;;;;;;;5.47;3.90;;;;;;;;;;5014136;28;20214;-86
2023/08/19 00:42:48;;;;;;;4.50;3.78;;;;;;;;;;5032593;28;20246;-86
2023/08/19 00:45:15;;;;;;;4.88;4.00;;;;;;;;;;5031392;28;20647;-85
2023/08/19 00:47:42;;;;;;;5.97;3.90;;;;;;;;;;5032482;28;20211;-86
2023/08/19 00:50:11;;;;;;;4.30;3.67;;;;;;;;;;5031747;28;20222;-85
2023/08/19 00:52:39;;;;;;;3.78;3.35;;;;;;;;;;5032048;28;20218;-86
2023/08/19 00:55:07;;;;;;;7.13;3.65;;;;;;;;;;5024152;28;20215;-86
2023/08/19 00:57:35;;;;;;;3.95;3.65;;;;;;;;;;5012469;28;20211;-86
2023/08/19 01:00:04;;;;;;;6.70;3.30;;;;;;;;;;5024482;28;20227;-87
2023/08/19 01:02:31;;;;;;;7.28;5.07;;;;;;;;;;5026841;28;20242;-86
2023/08/19 01:04:58;;;;;;;5.90;3.90;;;;;;;;;;5027771;28;20677;-86
2023/08/19 01:07:29;;;;;;;4.97;3.50;;;;;;;;;;5017277;28;20226;-86
2023/08/19 01:10:00;;;;;;;6.68;3.30;;;;;;;;;;5025154;28;20211;-86
2023/08/19 01:12:34;;;;;;;3.70;3.40;;;;;;;;;;5014108;28;20724;-85
2023/08/19 01:15:04;;;;;;;4.45;3.28;;;;;;;;;;5025649;28;20583;-85
2023/08/19 01:17:33;;;;;;;6.60;3.45;;;;;;;;;;5029434;28;20227;-85
2023/08/19 01:20:01;;;;;;;5.38;3.50;;;;;;;;;;5030243;28;20486;-86
2023/08/19 01:22:32;;;;;;;4.20;3.33;;;;;;;;;;5031477;28;20716;-86
2023/08/19 01:25:01;;;;;;;5.70;3.30;;;;;;;;;;5015553;28;20211;-85
2023/08/19 01:27:28;;;;;;;4.93;3.10;;;;;;;;;;5024848;28;20230;-85
2023/08/19 01:29:56;;;;;;;3.55;3.00;;;;;;;;;;5026691;28;20226;-85
2023/08/19 01:32:24;;;;;;;5.28;3.53;;;;;;;;;;5031622;28;20230;-85
2023/08/19 01:34:51;;;;;;;8.35;5.00;;;;;;;;;;5019761;28;20238;-85
2023/08/19 01:37:23;;;;;;;5.50;3.35;;;;;;;;;;5034418;28;20233;-85
2023/08/19 01:39:50;;;;;;;6.55;3.40;;;;;;;;;;5034831;28;20210;-86
2023/08/19 01:42:19;;;;;;;3.40;3.10;;;;;;;;;;5025953;28;20242;-85
2023/08/19 01:44:46;;;;;;;4.10;3.50;;;;;;;;;;5026894;28;20222;-85
2023/08/19 01:47:16;;;;;;;4.07;3.55;;;;;;;;;;5034744;28;20716;-86
2023/08/19 01:49:43;;;;;;;3.88;3.30;;;;;;;;;;5017984;28;20227;-85
2023/08/19 01:52:10;;;;;;;5.80;4.15;;;;;;;;;;5022198;28;20238;-86
2023/08/19 01:54:37;;;;;;;8.55;3.78;;;;;;;;;;5030628;28;20225;-85
2023/08/19 01:57:04;;;;;;;6.05;3.28;;;;;;;;;;5028907;28;20226;-85
2023/08/19 01:59:32;;;;;;;4.25;3.30;;;;;;;;;;5034172;28;20220;-85
2023/08/19 02:02:00;;;;;;;5.13;3.08;;;;;;;;;;5029975;28;20659;-85
2023/08/19 02:04:27;;;;;;;5.30;3.80;;;;;;;;;;5014456;28;20669;-86
2023/08/19 02:06:54;;;;;;;6.13;3.35;;;;;;;;;;5014292;28;20223;-85
2023/08/19 02:09:21;;;;;;;5.65;3.47;;;;;;;;;;5020198;28;20226;-86
2023/08/19 02:11:48;;;;;;;3.42;3.13;;;;;;;;;;5033950;28;20234;-85
2023/08/19 02:14:15;;;;;;;6.22;3.40;;;;;;;;;;5034563;28;20214;-86
2023/08/19 02:16:43;;;;;;;7.75;3.20;;;;;;;;;;5025144;28;20237;-86
2023/08/19 02:19:10;;;;;;;4.65;3.75;;;;;;;;;;5020018;28;20217;-87
2023/08/19 02:21:37;;;;;;;8.00;3.85;;;;;;;;;;5019185;28;20239;-85
2023/08/19 02:24:05;;;;;;;5.45;3.72;;;;;;;;;;5014212;28;20215;-85
2023/08/19 02:26:32;;;;;;;6.72;3.92;;;;;;;;;;5021568;28;20503;-85
2023/08/19 02:28:59;;;;;;;6.10;3.90;;;;;;;;;;5026035;28;20743;-85
2023/08/19 02:31:27;;;;;;;4.63;3.47;;;;;;;;;;5024662;28;20709;-85
2023/08/19 02:33:55;;;;;;;6.80;3.47;;;;;;;;;;5033967;28;20261;-85
2023/08/19 02:36:22;;;;;;;4.30;3.38;;;;;;;;;;5032946;28;20230;-85
2023/08/19 02:38:49;;;;;;;4.60;3.90;;;;;;;;;;5022451;28;20219;-85
2023/08/19 02:41:16;;;;;;;8.57;3.67;;;;;;;;;;5020888;28;20234;-86
2023/08/19 02:43:43;;;;;;;5.65;3.63;;;;;;;;;;5033426;28;20211;-85
2023/08/19 02:46:10;;;;;;;4.38;3.80;;;;;;;;;;5019188;28;20231;-85
2023/08/19 02:48:37;;;;;;;6.43;4.00;;;;;;;;;;5013470;28;20238;-85
2023/08/19 02:51:06;;;;;;;4.05;3.58;;;;;;;;;;5019210;28;20234;-85
2023/08/19 02:53:33;;;;;;;8.27;4.55;;;;;;;;;;5032940;28;20214;-86
2023/08/19 02:56:00;;;;;;;7.80;4.00;;;;;;;;;;5013209;28;20251;-85
2023/08/19 02:58:29;;;;;;;4.70;3.63;;;;;;;;;;5013111;28;20219;-86
2023/08/19 03:00:57;;;;;;;4.85;3.85;;;;;;;;;;5012716;28;20231;-85
2023/08/19 03:03:24;;;;;;;4.18;3.78;;;;;;;;;;5013096;28;20208;-84
2023/08/19 03:05:51;;;;;;;5.53;4.05;;;;;;;;;;5030921;28;20230;-85
2023/08/19 03:08:19;;;;;;;4.88;3.40;;;;;;;;;;5032756;28;20218;-86
2023/08/19 03:10:46;;;;;;;4.38;3.72;;;;;;;;;;5032101;28;20227;-85
2023/08/19 03:13:13;;;;;;;3.95;3.55;;;;;;;;;;5033281;28;20217;-85
2023/08/19 03:15:40;;;;;;;4.15;3.75;;;;;;;;;;5012592;28;20238;-85
2023/08/19 03:18:07;;;;;;;6.63;3.85;;;;;;;;;;5013213;28;20228;-85
2023/08/19 03:20:35;;;;;;;4.60;3.67;;;;;;;;;;5012078;28;20318;-85
2023/08/19 03:23:02;;;;;;;8.30;4.07;;;;;;;;;;5012947;28;20207;-85
2023/08/19 03:25:30;;;;;;;4.97;3.78;;;;;;;;;;5028530;28;20226;-85
2023/08/19 03:27:57;;;;;;;5.07;3.97;;;;;;;;;;5032963;28;20211;-85
2023/08/19 03:30:25;;;;;;;5.25;3.83;;;;;;;;;;5030133;28;20242;-86
2023/08/19 03:32:52;;;;;;;5.13;3.95;;;;;;;;;;5029018;28;20691;-85
2023/08/19 03:35:19;;;;;;;4.72;3.92;;;;;;;;;;5031924;28;20210;-86
2023/08/19 03:37:46;;;;;;;4.10;3.60;;;;;;;;;;5032211;28;20265;-85
2023/08/19 03:40:13;;;;;;;6.72;4.18;;;;;;;;;;5031777;28;20221;-85
2023/08/19 03:42:41;;;;;;;4.63;3.60;;;;;;;;;;5012954;28;20557;-85
2023/08/19 03:45:09;;;;;;;4.38;3.80;;;;;;;;;;5012246;28;20211;-85
2023/08/19 03:47:36;;;;;;;3.97;3.50;;;;;;;;;;5012417;28;20304;-85
2023/08/19 03:50:03;;;;;;;6.10;4.22;;;;;;;;;;5013660;28;20231;-86
2023/08/19 03:52:30;;;;;;;5.97;4.28;;;;;;;;;;5029589;28;20245;-84
2023/08/19 03:54:57;;;;;;;6.55;4.15;;;;;;;;;;5032104;28;20202;-85
2023/08/19 03:57:24;;;;;;;6.28;4.50;;;;;;;;;;5031867;28;20226;-84
2023/08/19 03:59:53;;;;;;;5.68;3.92;;;;;;;;;;5032272;28;20231;-85
2023/08/19 04:02:20;;;;;;;7.38;4.68;;;;;;;;;;5023146;28;20711;-86
2023/08/19 04:04:57;;;;;;;6.47;4.50;;;;;;;;;;5014290;28;20208;-86
2023/08/19 04:07:24;;;;;;;5.63;3.95;;;;;;;;;;5015257;28;20231;-85
2023/08/19 04:09:51;;;;;;;7.93;4.30;;;;;;;;;;5029145;28;20227;-85
2023/08/19 04:12:18;;;;;;;7.28;4.30;;;;;;;;;;5020770;28;20235;-85
2023/08/19 04:14:46;;;;;;;4.50;4.00;;;;;;;;;;5023108;28;20225;-85
2023/08/19 04:17:14;;;;;;;5.93;3.67;;;;;;;;;;5031440;28;20230;-85
2023/08/19 04:19:41;;;;;;;8.18;4.03;;;;;;;;;;5023467;28;20211;-85
2023/08/19 04:22:08;;;;;;;11.40;4.43;;;;;;;;;;5014460;28;20245;-85
2023/08/19 04:24:37;;;;;;;9.88;4.72;;;;;;;;;;5021845;28;20215;-85
2023/08/19 04:27:04;;;;;;;6.13;4.28;;;;;;;;;;5025500;28;20227;-84
2023/08/19 04:29:33;;;;;;;5.30;4.38;;;;;;;;;;5028875;28;20281;-84
2023/08/19 04:32:00;;;;;;;5.78;4.30;;;;;;;;;;5016559;28;20231;-85
2023/08/19 04:34:28;;;;;;;5.07;3.60;;;;;;;;;;5012372;28;20230;-85
2023/08/19 04:36:55;;;;;;;3.80;3.50;;;;;;;;;;5011248;28;20607;-85
2023/08/19 04:39:22;;;;;;;8.13;4.20;;;;;;;;;;5011595;28;20706;-83
2023/08/19 04:41:50;;;;;;;6.55;4.13;;;;;;;;;;5010709;28;20246;-83
2023/08/19 04:44:17;;;;;;;4.60;4.20;;;;;;;;;;5022575;28;20237;-83
2023/08/19 04:46:44;;;;;;;7.78;4.05;;;;;;;;;;5019987;28;20234;-82
2023/08/19 04:49:11;;;;;;;5.75;4.45;;;;;;;;;;5025815;28;20226;-83
2023/08/19 04:51:39;;;;;;;8.35;4.22;;;;;;;;;;5030237;28;20242;-83
2023/08/19 04:54:07;;;;;;;7.57;4.28;;;;;;;;;;5034647;28;20214;-83
2023/08/19 04:56:34;;;;;;;8.88;4.20;;;;;;;;;;5034237;28;20712;-83
2023/08/19 04:59:01;;;;;;;9.52;5.13;;;;;;;;;;5035144;28;20211;-83
2023/08/19 05:01:28;;;;;;;5.07;4.60;;;;;;;;;;5023750;28;20733;-83
2023/08/19 05:03:55;;;;;;;6.15;5.32;;;;;;;;;;5016841;28;20242;-82
2023/08/19 05:06:23;;;;;;;5.35;4.30;;;;;;;;;;5014639;28;20231;-84
2023/08/19 05:08:51;;;;;;;5.18;4.40;;;;;;;;;;5014837;28;20211;-83
2023/08/19 05:11:18;;;;;;;4.63;4.22;;;;;;;;;;5023245;28;20226;-83
2023/08/19 05:13:46;;;;;;;6.10;4.22;;;;;;;;;;5035588;28;20225;-83
2023/08/19 05:16:13;;;;;;;6.75;4.35;;;;;;;;;;5031199;28;20230;-83
2023/08/19 05:18:40;;;;;;;8.82;4.75;;;;;;;;;;5014690;28;20212;-83
2023/08/19 05:21:07;;;;;;;7.45;4.97;;;;;;;;;;5015371;28;20615;-83
2023/08/19 05:23:34;;;;;;;7.95;4.72;;;;;;;;;;5023349;28;20677;-83
2023/08/19 05:26:03;;;;;;;5.53;4.72;;;;;;;;;;5034163;28;20230;-83
2023/08/19 05:28:31;;;;;;;6.65;5.05;;;;;;;;;;5034353;28;20265;-83
2023/08/19 05:30:58;;;;;;;5.15;4.38;;;;;;;;;;5023319;28;20325;-83
2023/08/19 05:33:25;;;;;;;7.47;4.80;;;;;;;;;;5016352;28;20211;-83
2023/08/19 05:35:52;;;;;;;5.38;4.38;;;;;;;;;;5019516;28;20288;-83
2023/08/19 05:38:19;;;;;;;9.60;4.85;;;;;;;;;;5034794;28;20229;-83
2023/08/19 05:40:46;;;;;;;6.28;4.40;;;;;;;;;;5033552;28;20237;-84
2023/08/19 05:43:15;;;;;;;5.35;4.55;;;;;;;;;;5021194;28;20203;-83
2023/08/19 05:45:42;;;;;;;7.20;4.38;;;;;;;;;;5023336;28;20234;-83
2023/08/19 05:48:09;;;;;;;9.95;4.47;;;;;;;;;;5034082;28;20214;-82
2023/08/19 05:50:36;;;;;;;5.88;4.55;;;;;;;;;;5028592;28;20231;-83
2023/08/19 05:53:03;;;;;;;5.40;4.40;;;;;;;;;;5018765;28;20661;-83
2023/08/19 05:55:30;;;;;;;7.97;4.75;;;;;;;;;;5033730;28;20238;-84
2023/08/19 05:57:57;;;;;;;4.85;4.20;;;;;;;;;;5029760;28;20211;-84
2023/08/19 06:00:26;;;;;;;6.35;4.53;;;;;;;;;;5014478;28;20239;-84
2023/08/19 06:02:53;;;;;;;5.35;4.15;;;;;;;;;;5013588;28;20204;-85
2023/08/19 06:05:20;;;;;;;5.78;4.20;;;;;;;;;;5012299;28;20215;-84
2023/08/19 06:07:47;;;;;;;5.97;4.13;;;;;;;;;;5014097;28;20297;-83
2023/08/19 06:10:16;;;;;;;6.40;3.78;;;;;;;;;;5017722;28;20670;-82
2023/08/19 06:12:43;;;;;;;7.00;4.35;;;;;;;;;;5030839;28;20264;-81
2023/08/19 06:15:11;;;;;;;6.18;3.75;;;;;;;;;;5023646;28;20215;-81
2023/08/19 06:17:40;;;;;;;7.68;4.25;;;;;;;;;;5020450;28;20203;-82
2023/08/19 06:20:07;;;;;;;9.05;4.10;;;;;;;;;;5023372;28;20214;-84
2023/08/19 06:22:35;;;;;;;6.13;3.80;;;;;;;;;;5021352;28;20336;-82
2023/08/19 06:25:02;;;;;;;4.90;4.20;;;;;;;;;;5024397;28;20238;-83
2023/08/19 06:27:29;;;;;;;5.07;4.07;;;;;;;;;;5024881;28;20693;-82
2023/08/19 06:29:56;;;;;;;7.10;4.10;;;;;;;;;;5030110;28;20713;-82
2023/08/19 06:32:23;;;;;;;8.25;4.32;;;;;;;;;;5028276;28;20735;-82
2023/08/19 06:34:52;;;;;;;4.43;4.03;;;;;;;;;;5032958;28;20585;-81
2023/08/19 06:37:20;;;;;;;3.95;3.65;;;;;;;;;;5021164;28;20234;-82
2023/08/19 06:39:49;;;;;;;6.53;4.10;;;;;;;;;;5031660;28;20206;-83
2023/08/19 06:42:17;;;;;;;3.60;3.30;;;;;;;;;;5024326;28;20230;-82
2023/08/19 06:44:45;;;;;;;4.32;3.17;;;;;;;;;;5018002;28;20211;-82
2023/08/19 06:47:12;;;;;;;3.63;3.30;;;;;;;;;;5027042;28;20234;-82
2023/08/19 06:49:39;;;;;;;5.03;3.55;;;;;;;;;;5021560;28;20223;-82
2023/08/19 06:52:09;;;;;;;4.80;3.25;;;;;;;;;;5032603;28;20239;-82
2023/08/19 06:54:36;;;;;;;5.47;3.15;;;;;;;;;;5024484;28;20278;-83
2023/08/19 06:57:07;;;;;;;4.72;3.42;;;;;;;;;;5027926;28;20231;-81
2023/08/19 06:59:37;;;;;;;3.78;3.47;;;;;;;;;;5029049;28;20210;-82
2023/08/19 07:02:05;;;;;;;6.30;3.53;;;;;;;;;;5020821;28;20238;-83
2023/08/19 07:04:33;;;;;;;7.22;3.50;;;;;;;;;;5043450;28;20214;-83
2023/08/19 07:07:01;;;;;;;5.88;3.20;;;;;;;;;;5014579;28;20238;-82
2023/08/19 07:09:29;;;;;;;3.55;3.25;;;;;;;;;;5013686;28;20606;-83
2023/08/19 07:11:57;;;;;;;6.65;3.13;;;;;;;;;;5032536;28;20245;-83
2023/08/19 07:14:25;;;;;;;3.15;2.90;;;;;;;;;;5016170;28;20598;-83
2023/08/19 07:16:52;;;;;;;4.18;3.40;;;;;;;;;;5011448;28;20231;-82
2023/08/19 07:19:22;;;;;;;5.07;3.05;;;;;;;;;;5012271;28;20211;-82
2023/08/19 07:21:49;;;;;;;3.97;3.10;;;;;;;;;;5011726;28;20238;-82
2023/08/19 07:24:17;;;;;;;5.10;3.35;;;;;;;;;;5017803;28;20668;-82
2023/08/19 07:26:46;;;;;;;3.83;2.90;;;;;;;;;;5031185;28;20276;-86
2023/08/19 07:29:13;;;;;;;4.63;3.40;;;;;;;;;;5023764;28;20207;-80
2023/08/19 07:31:41;;;;;;;3.42;3.13;;;;;;;;;;5030953;28;20532;-85
2023/08/19 07:34:08;;;;;;;3.85;3.30;;;;;;;;;;5032227;28;20285;-81
2023/08/19 07:36:35;;;;;;;3.42;3.10;;;;;;;;;;5025599;28;20723;-85
2023/08/19 07:39:03;;;;;;;4.47;3.50;;;;;;;;;;5012368;28;20211;-84
2023/08/19 07:41:31;;;;;;;6.70;3.20;;;;;;;;;;5011973;28;20246;-84
2023/08/19 07:43:59;;;;;;;6.63;3.60;;;;;;;;;;5012032;28;20646;-86
2023/08/19 07:46:26;;;;;;;3.25;2.95;;;;;;;;;;5025945;28;20227;-83
2023/08/19 07:48:53;;;;;;;2.80;2.60;;;;;;;;;;5029667;28;20238;-83
2023/08/19 07:51:21;;;;;;;5.35;2.85;;;;;;;;;;5011881;28;20243;-84
2023/08/19 07:53:48;;;;;;;4.20;2.90;;;;;;;;;;5011992;28;20216;-83
2023/08/19 07:56:16;;;;;;;3.70;2.78;;;;;;;;;;5011583;28;20227;-84
2023/08/19 07:58:44;;;;;;;5.10;3.03;;;;;;;;;;5011862;28;20310;-84
2023/08/19 08:01:13;;;;;;;4.97;3.42;;;;;;;;;;5011759;28;20231;-84
2023/08/19 08:03:40;;;;;;;3.08;2.70;;;;;;;;;;5012106;28;20273;-84
2023/08/19 08:06:07;;;;;;;4.22;2.72;;;;;;;;;;5030965;28;20249;-84
2023/08/19 08:08:35;;;;;;;2.67;2.47;;;;;;;;;;5032315;28;20207;-84
2023/08/19 08:11:02;;;;;;;3.53;2.30;;;;;;;;;;5031441;28;20317;-84
2023/08/19 08:13:30;;;;;;;3.13;2.83;;;;;;;;;;5031468;28;20211;-84
2023/08/19 08:15:58;;;;;;;3.28;2.67;;;;;;;;;;5031120;28;20423;-84
2023/08/19 08:18:27;;;;;;;4.15;2.90;;;;;;;;;;5032204;28;20213;-84
2023/08/19 08:20:54;;;;;;;3.45;3.03;;;;;;;;;;5053603;23;20241;-85
2023/08/19 08:23:21;;;;;;;5.05;2.40;;;;;;;;;;5021639;28;20233;-81
2023/08/19 08:25:48;;;;;;;2.90;2.60;;;;;;;;;;5029895;28;20579;-81
2023/08/19 08:28:16;;;;;;;7.13;3.17;;;;;;;;;;5031023;28;20221;-82
2023/08/19 08:30:43;;;;;;;3.08;2.78;;;;;;;;;;5030964;28;20247;-82
2023/08/19 08:33:10;;;;;;;3.08;2.58;;;;;;;;;;5023086;28;20234;-82
2023/08/19 08:35:38;;;;;;;4.60;2.10;;;;;;;;;;5022263;28;20595;-81
2023/08/19 08:38:05;;;;;;;3.40;3.05;;;;;;;;;;5019461;28;20214;-81
2023/08/19 08:40:32;;;;;;;3.20;2.50;;;;;;;;;;5010529;28;20239;-81
2023/08/19 08:43:02;;;;;;;3.28;2.38;;;;;;;;;;5029483;28;20227;-81
2023/08/19 08:45:31;;;;;;;4.55;2.25;;;;;;;;;;5015243;28;20402;-81
2023/08/19 08:47:58;;;;;;;7.30;3.33;;;;;;;;;;5004908;28;20215;-81
2023/08/19 08:50:26;;;;;;;2.40;2.20;;;;;;;;;;5029895;28;20234;-82
2023/08/19 08:52:55;;;;;;;2.20;2.00;;;;;;;;;;5012087;28;20231;-81
2023/08/19 08:55:22;;;;;;;3.15;2.42;;;;;;;;;;5010152;28;20653;-80
2023/08/19 08:57:49;;;;;;;5.55;2.28;;;;;;;;;;5017565;28;20227;-80
2023/08/19 09:00:16;;;;;;;3.35;2.05;;;;;;;;;;5016911;28;20210;-80
2023/08/19 09:02:45;;;;;;;4.07;2.30;;;;;;;;;;5031287;28;20234;-84
2023/08/19 09:05:12;;;;;;;2.92;2.30;;;;;;;;;;5030472;28;20217;-84
2023/08/19 09:07:40;;;;;;;2.38;2.13;;;;;;;;;;5031422;28;20210;-84
2023/08/19 09:10:12;;;;;;;3.92;2.47;;;;;;;;;;5030886;28;20221;-86
2023/08/19 09:12:40;;;;;;;3.30;2.25;;;;;;;;;;5025016;28;20600;-85
2023/08/19 09:15:07;;;;;;;5.30;2.70;;;;;;;;;;5017977;28;20246;-85
2023/08/19 09:17:35;;;;;;;7.88;2.60;;;;;;;;;;5019317;28;20218;-85
2023/08/19 09:20:03;;;;;;;4.97;2.25;;;;;;;;;;5012116;28;20239;-85
2023/08/19 09:22:30;;;;;;;4.20;2.70;;;;;;;;;;5010744;28;20234;-85
2023/08/19 09:24:57;;;;;;;2.90;2.50;;;;;;;;;;5011026;28;20211;-83
2023/08/19 09:27:29;;;;;;;2.60;2.13;;;;;;;;;;5010778;28;20248;-84
2023/08/19 09:29:56;;;;;;;2.33;2.13;;;;;;;;;;5010327;28;20226;-84
2023/08/19 09:32:30;;;;;;;2.40;2.20;;;;;;;;;;5007628;28;20246;-84
2023/08/19 09:35:04;;;;;;;3.05;2.13;;;;;;;;;;5012340;28;20207;-84
2023/08/19 09:37:31;;;;;;;3.72;2.40;;;;;;;;;;5009469;28;20414;-84
2023/08/19 09:39:58;;;;;;;2.42;2.13;;;;;;;;;;5025745;28;20238;-84
2023/08/19 09:42:26;;;;;;;5.97;2.67;;;;;;;;;;5033827;28;20234;-84
2023/08/19 09:44:54;;;;;;;2.50;2.40;;;;;;;;;;5032829;28;20210;-83
2023/08/19 09:47:23;;;;;;;3.53;2.28;;;;;;;;;;5019179;28;20227;-84
2023/08/19 09:49:54;;;;;;;3.67;2.38;;;;;;;;;;5018324;28;20216;-86
2023/08/19 09:52:21;;;;;;;5.63;2.70;;;;;;;;;;5007332;28;20235;-85
2023/08/19 09:54:52;;;;;;;3.53;2.28;;;;;;;;;;5015065;28;20211;-84
2023/08/19 09:57:20;;;;;;;2.80;2.40;;;;;;;;;;5016018;28;20236;-85
2023/08/19 09:59:47;;;;;;;3.60;2.50;;;;;;;;;;5011451;28;20215;-85
2023/08/19 10:02:17;;;;;;;6.03;2.65;;;;;;;;;;5029901;28;20231;-85
2023/08/19 10:04:44;;;;;;;3.58;2.40;;;;;;;;;;5015146;28;20234;-86
2023/08/19 10:07:14;;;;;;;2.70;2.47;;;;;;;;;;5010121;28;20235;-85
2023/08/19 10:09:42;;;;;;;5.35;2.90;;;;;;;;;;5015545;28;20204;-86
2023/08/19 10:12:11;;;;;;;6.68;2.22;;;;;;;;;;5033280;28;20238;-85
2023/08/19 10:14:40;;;;;;;4.70;2.40;;;;;;;;;;5018930;28;20677;-85
2023/08/19 10:17:07;;;;;;;2.65;2.33;;;;;;;;;;5012852;28;20739;-84
2023/08/19 10:19:39;;;;;;;4.50;2.40;;;;;;;;;;5013736;28;20681;-85
2023/08/19 10:22:07;;;;;;;3.53;2.10;;;;;;;;;;5005286;28;20697;-85
2023/08/19 10:24:35;;;;;;;2.70;2.50;;;;;;;;;;5019630;28;20488;-85
2023/08/19 10:27:02;;;;;;;3.65;2.20;;;;;;;;;;5014900;28;20698;-85
2023/08/19 10:29:29;;;;;;;6.20;2.28;;;;;;;;;;5009222;28;22137;-85
2023/08/19 10:31:56;;;;;;;5.10;2.80;;;;;;;;;;5014476;28;20226;-84
2023/08/19 10:34:27;;;;;;;6.32;4.57;;;;;;;;;;5009907;28;20212;-84
2023/08/19 10:37:08;;;;;;;2.80;2.47;;;;;;;;;;5018637;28;20230;-85
2023/08/19 10:39:35;;;;;;;3.63;2.20;;;;;;;;;;5013321;28;20211;-85
2023/08/19 10:42:02;;;;;;;2.92;2.30;;;;;;;;;;5019836;28;20223;-85
2023/08/19 10:44:33;;;;;;;3.35;2.10;;;;;;;;;;5012929;28;20206;-85
2023/08/19 10:47:09;;;;;;;2.58;2.38;;;;;;;;;;5007078;28;20756;-85
2023/08/19 10:49:36;;;;;;;3.08;2.47;;;;;;;;;;5023272;28;20264;-85
2023/08/19 10:52:04;;;;;;;4.18;2.40;;;;;;;;;;5006189;28;20235;-86
2023/08/19 10:54:35;;;;;;;4.35;2.42;;;;;;;;;;5017338;28;20207;-84
2023/08/19 10:57:09;;;;;;;3.67;2.80;;;;;;;;;;5012428;28;20697;-84
2023/08/19 10:59:37;;;;;;;3.50;2.10;;;;;;;;;;5007758;28;20199;-85
2023/08/19 11:02:04;;;;;;;2.67;2.47;;;;;;;;;;5006715;28;20254;-85
2023/08/19 11:04:32;;;;;;;4.05;2.28;;;;;;;;;;5020577;28;20240;-85
2023/08/19 11:06:59;;;;;;;2.97;2.40;;;;;;;;;;5003155;28;20231;-86
2023/08/19 11:09:28;;;;;;;5.35;2.53;;;;;;;;;;5004178;28;20203;-87
2023/08/19 11:11:58;;;;;;;4.75;2.70;;;;;;;;;;5019754;28;20258;-87
2023/08/19 11:14:25;;;;;;;3.60;2.80;;;;;;;;;;5005393;28;20211;-86
2023/08/19 11:16:55;;;;;;;3.58;2.53;;;;;;;;;;5005187;28;20253;-85
2023/08/19 11:19:23;;;;;;;3.95;2.65;;;;;;;;;;5019125;28;20207;-86
2023/08/19 11:21:50;;;;;;;5.07;2.70;;;;;;;;;;5011090;28;20238;-86
2023/08/19 11:24:18;;;;;;;6.00;2.75;;;;;;;;;;5004284;28;20203;-86
2023/08/19 11:26:46;;;;;;;5.32;2.67;;;;;;;;;;5007746;28;20285;-86
2023/08/19 11:29:16;;;;;;;5.35;2.72;;;;;;;;;;5008801;28;20650;-87
2023/08/19 11:31:43;;;;;;;2.97;2.67;;;;;;;;;;5000958;28;20697;-86
2023/08/19 11:34:11;;;;;;;2.97;2.60;;;;;;;;;;5009834;28;20250;-87
2023/08/19 11:36:38;;;;;;;6.95;3.00;;;;;;;;;;5009067;28;20223;-86
2023/08/19 11:39:06;;;;;;;3.53;2.80;;;;;;;;;;5014180;28;20207;-86
2023/08/19 11:41:33;;;;;;;3.10;2.40;;;;;;;;;;5025898;28;20222;-87
2023/08/19 11:44:00;;;;;;;5.28;2.83;;;;;;;;;;5018532;28;20203;-87
2023/08/19 11:46:30;;;;;;;3.80;3.45;;;;;;;;;;5007186;28;20230;-87
2023/08/19 11:48:58;;;;;;;3.42;2.90;;;;;;;;;;5020718;28;20221;-86
2023/08/19 11:51:25;;;;;;;5.05;2.63;;;;;;;;;;5008055;28;20230;-86
2023/08/19 11:53:53;;;;;;;4.85;2.83;;;;;;;;;;5024774;28;20202;-87
2023/08/19 11:56:21;;;;;;;6.50;2.85;;;;;;;;;;5011658;28;20257;-86
2023/08/19 11:58:49;;;;;;;3.58;2.95;;;;;;;;;;5011600;28;20203;-86
2023/08/19 12:01:16;;;;;;;4.43;2.75;;;;;;;;;;5014564;28;20269;-88
2023/08/19 12:03:45;;;;;;;4.97;2.92;;;;;;;;;;5009944;28;20606;-87
2023/08/19 12:06:15;;;;;;;5.18;2.78;;;;;;;;;;5020619;28;20253;-87
2023/08/19 12:08:43;;;;;;;3.70;2.72;;;;;;;;;;5012688;28;20203;-88
2023/08/19 12:11:10;;;;;;;3.13;2.85;;;;;;;;;;5013257;28;20234;-87
2023/08/19 12:13:38;;;;;;;5.10;3.20;;;;;;;;;;5018111;28;20203;-88
2023/08/19 12:16:05;;;;;;;3.53;2.95;;;;;;;;;;5011386;28;20226;-87
2023/08/19 12:18:33;;;;;;;4.53;2.95;;;;;;;;;;5011781;28;20571;-86
2023/08/19 12:21:02;;;;;;;4.55;2.92;;;;;;;;;;5019082;28;20312;-86
2023/08/19 12:23:30;;;;;;;7.93;3.10;;;;;;;;;;5019871;28;20281;-86
2023/08/19 12:25:57;;;;;;;6.22;2.80;;;;;;;;;;5019222;28;20237;-88
2023/08/19 12:28:25;;;;;;;7.97;2.60;;;;;;;;;;5012205;28;20257;-87
2023/08/19 12:30:52;;;;;;;4.07;3.10;;;;;;;;;;5007614;28;20231;-87
2023/08/19 12:33:19;;;;;;;3.28;2.95;;;;;;;;;;5019916;28;20587;-88
2023/08/19 12:35:47;;;;;;;3.47;2.80;;;;;;;;;;5011542;28;20237;-87
2023/08/19 12:38:18;;;;;;;3.50;3.20;;;;;;;;;;5012058;28;20243;-88
2023/08/19 12:40:49;;;;;;;4.90;3.08;;;;;;;;;;5003433;28;20642;-88
2023/08/19 12:43:16;;;;;;;5.03;3.15;;;;;;;;;;5019982;28;20219;-88
2023/08/19 12:45:44;;;;;;;3.55;3.03;;;;;;;;;;5011859;28;20254;-87
2023/08/19 12:48:11;;;;;;;4.78;3.13;;;;;;;;;;5012289;28;20262;-88
2023/08/19 12:50:38;;;;;;;4.43;3.00;;;;;;;;;;5012448;28;20591;-88
2023/08/19 12:53:05;;;;;;;4.93;3.25;;;;;;;;;;5012915;28;20292;-88
2023/08/19 12:55:34;;;;;;;3.40;3.10;;;;;;;;;;5012828;28;20255;-88
2023/08/19 12:58:01;;;;;;;4.40;3.15;;;;;;;;;;5020910;28;20203;-88
2023/08/19 13:00:29;;;;;;;4.22;3.13;;;;;;;;;;5017163;28;20238;-89
2023/08/19 13:02:57;;;;;;;5.75;3.28;;;;;;;;;;5014990;28;20696;-86
2023/08/19 13:05:24;;;;;;;5.38;3.40;;;;;;;;;;5012869;28;20238;-87
2023/08/19 13:07:53;;;;;;;5.80;4.25;;;;;;;;;;5011818;28;20230;-88
2023/08/19 13:10:20;;;;;;;4.32;3.65;;;;;;;;;;5019793;28;20611;-87
2023/08/19 13:12:50;;;;;;;4.55;3.53;;;;;;;;;;5012082;28;20685;-88
2023/08/19 13:15:17;;;;;;;3.25;2.92;;;;;;;;;;5018319;28;20238;-87
2023/08/19 13:17:45;;;;;;;5.75;3.47;;;;;;;;;;5020412;28;20203;-88
2023/08/19 13:20:14;;;;;;;3.78;3.15;;;;;;;;;;5007203;28;20777;-88
2023/08/19 13:22:41;;;;;;;6.80;3.70;;;;;;;;;;5016119;28;20227;-88
2023/08/19 13:25:09;;;;;;;4.65;3.47;;;;;;;;;;5022949;28;20211;-87
2023/08/19 13:27:36;;;;;;;3.50;3.17;;;;;;;;;;5016207;28;20207;-89
2023/08/19 13:30:05;;;;;;;5.07;3.63;;;;;;;;;;5014664;28;20199;-86
2023/08/19 13:32:32;;;;;;;4.85;3.30;;;;;;;;;;5015114;28;20231;-89
2023/08/19 13:34:59;;;;;;;6.63;4.47;;;;;;;;;;5016282;28;20207;-87
2023/08/19 13:37:26;;;;;;;5.90;3.90;;;;;;;;;;5014876;28;20227;-87
2023/08/19 13:39:53;;;;;;;4.20;3.33;;;;;;;;;;5024994;28;20206;-88
2023/08/19 13:42:20;;;;;;;6.80;3.85;;;;;;;;;;5016038;28;20231;-88
2023/08/19 13:44:47;;;;;;;4.28;3.78;;;;;;;;;;5016276;28;20210;-88
2023/08/19 13:47:16;;;;;;;4.57;3.92;;;;;;;;;;5015479;28;20223;-87
2023/08/19 13:49:43;;;;;;;6.78;4.28;;;;;;;;;;5018089;28;20211;-88
2023/08/19 13:52:31;;;;;;;5.95;4.00;;;;;;;;;;5014471;28;20240;-87
2023/08/19 13:54:58;;;;;;;5.60;3.80;;;;;;;;;;5019957;28;20696;-87
2023/08/19 13:57:25;;;;;;;5.75;4.63;;;;;;;;;;5019976;28;20589;-88
2023/08/19 13:59:52;;;;;;;5.00;4.18;;;;;;;;;;5011510;28;20573;-87
2023/08/19 14:02:20;;;;;;;4.80;3.97;;;;;;;;;;5029355;28;20235;-88
2023/08/19 14:04:48;;;;;;;6.80;4.63;;;;;;;;;;5014074;28;20203;-87
2023/08/19 14:07:15;;;;;;;4.13;3.78;;;;;;;;;;5017978;28;20712;-83
2023/08/19 14:09:42;;;;;;;4.25;3.85;;;;;;;;;;5014468;28;20210;-89
2023/08/19 14:12:09;;;;;;;5.43;4.28;;;;;;;;;;5020178;28;20235;-87
2023/08/19 14:14:37;;;;;;;6.25;4.78;;;;;;;;;;5015457;28;20681;-88
2023/08/19 14:17:04;;;;;;;4.88;4.18;;;;;;;;;;5022193;28;20238;-88
2023/08/19 14:19:32;;;;;;;5.70;4.15;;;;;;;;;;5033870;28;20225;-86
2023/08/19 14:21:59;;;;;;;8.13;4.95;;;;;;;;;;5015138;28;20231;-92
2023/08/19 14:24:26;;;;;;;5.10;4.10;;;;;;;;;;5006706;28;20579;-91
2023/08/19 14:26:53;;;;;;;4.22;3.80;;;;;;;;;;5018565;28;20228;-90
2023/08/19 14:29:21;;;;;;;5.45;4.28;;;;;;;;;;5034973;28;20210;-90
2023/08/19 14:31:48;;;;;;;4.18;3.75;;;;;;;;;;5017093;28;20237;-90
2023/08/19 14:34:15;;;;;;;5.13;4.03;;;;;;;;;;5015218;28;20207;-90
2023/08/19 14:36:43;;;;;;;5.40;4.13;;;;;;;;;;5013855;28;20223;-91
2023/08/19 14:39:11;;;;;;;5.28;3.80;;;;;;;;;;5015767;28;20696;-91
2023/08/19 14:41:38;;;;;;;4.47;3.90;;;;;;;;;;5014998;28;20608;-90
2023/08/19 14:44:06;;;;;;;6.40;4.15;;;;;;;;;;5021603;28;20213;-90
2023/08/19 14:46:34;;;;;;;4.85;3.65;;;;;;;;;;5034432;28;20227;-89